sensor_id;sensor_type;location;lat;lon;timestamp;temperature;humidity
27439;DHT22;14887;51.252;7.470;2024-02-04T00:01:39;7.60;1.00
27439;DHT22;14887;51.252;7.470;2024-02-04T00:04:05;7.60;1.00
27439;DHT22;14887;51.252;7.470;2024-02-04T00:06:31;7.60;1.00
27439;DHT22;14887;51.252;7.470;2024-02-04T00:08:56;7.60;1.00
27439;DHT22;14887;51.252;7.470;2024-02-04T00:11:22;7.60;1.00
27439;DHT22;14887;51.252;7.470;2024-02-04T00:13:48;7.60;1.00
27439;DHT22;14887;51.252;7.470;2024-02-04T00:16:13;7.60;1.00
27439;DHT22;14887;51.252;7.470;2024-02-04T00:18:39;7.60;1.00
27439;DHT22;14887;51.252;7.470;2024-02-04T00:21:05;7.60;1.00
27439;DHT22;14887;51.252;7.470;2024-02-04T00:23:30;7.60;1.00
27439;DHT22;14887;51.252;7.470;2024-02-04T00:25:56;7.50;1.00
27439;DHT22;14887;51.252;7.470;2024-02-04T00:28:22;7.50;1.00
27439;DHT22;14887;51.252;7.470;2024-02-04T00:30:47;7.50;1.00
27439;DHT22;14887;51.252;7.470;2024-02-04T00:33:15;7.50;1.00
27439;DHT22;14887;51.252;7.470;2024-02-04T00:35:41;7.50;1.00
27439;DHT22;14887;51.252;7.470;2024-02-04T00:38:07;7.50;1.00
27439;DHT22;14887;51.252;7.470;2024-02-04T00:40:34;7.50;1.00
27439;DHT22;14887;51.252;7.470;2024-02-04T00:42:59;7.50;1.00
27439;DHT22;14887;51.252;7.470;2024-02-04T00:45:25;7.50;1.00
27439;DHT22;14887;51.252;7.470;2024-02-04T00:47:51;7.50;1.00
27439;DHT22;14887;51.252;7.470;2024-02-04T00:50:17;7.50;1.00
27439;DHT22;14887;51.252;7.470;2024-02-04T00:52:42;7.50;1.00
27439;DHT22;14887;51.252;7.470;2024-02-04T00:55:08;7.50;1.00
27439;DHT22;14887;51.252;7.470;2024-02-04T00:57:34;7.50;1.00
27439;DHT22;14887;51.252;7.470;2024-02-04T00:59:59;7.50;1.00
27439;DHT22;14887;51.252;7.470;2024-02-04T01:02:25;7.50;1.00
27439;DHT22;14887;51.252;7.470;2024-02-04T01:04:50;7.50;1.00
27439;DHT22;14887;51.252;7.470;2024-02-04T01:07:17;7.50;1.00
27439;DHT22;14887;51.252;7.470;2024-02-04T01:09:42;7.50;1.00
27439;DHT22;14887;51.252;7.470;2024-02-04T01:12:08;7.60;1.00
27439;DHT22;14887;51.252;7.470;2024-02-04T01:14:34;7.50;1.00
27439;DHT22;14887;51.252;7.470;2024-02-04T01:16:59;7.50;1.00
27439;DHT22;14887;51.252;7.470;2024-02-04T01:19:25;7.60;1.00
27439;DHT22;14887;51.252;7.470;2024-02-04T01:21:50;7.50;1.00
27439;DHT22;14887;51.252;7.470;2024-02-04T01:24:16;7.50;1.00
27439;DHT22;14887;51.252;7.470;2024-02-04T01:26:41;7.50;1.00
27439;DHT22;14887;51.252;7.470;2024-02-04T01:29:07;7.50;1.00
27439;DHT22;14887;51.252;7.470;2024-02-04T01:31:32;7.50;1.00
27439;DHT22;14887;51.252;7.470;2024-02-04T01:33:58;7.50;1.00
27439;DHT22;14887;51.252;7.470;2024-02-04T01:36:23;7.50;1.00
27439;DHT22;14887;51.252;7.470;2024-02-04T01:38:49;7.50;1.00
27439;DHT22;14887;51.252;7.470;2024-02-04T01:41:15;7.50;1.00
27439;DHT22;14887;51.252;7.470;2024-02-04T01:43:40;7.50;1.00
27439;DHT22;14887;51.252;7.470;2024-02-04T01:46:06;7.50;1.00
27439;DHT22;14887;51.252;7.470;2024-02-04T01:48:32;7.60;1.00
27439;DHT22;14887;51.252;7.470;2024-02-04T01:50:59;7.50;1.00
27439;DHT22;14887;51.252;7.470;2024-02-04T01:53:26;7.50;1.00
27439;DHT22;14887;51.252;7.470;2024-02-04T01:55:53;7.50;1.00
27439;DHT22;14887;51.252;7.470;2024-02-04T01:58:20;7.60;1.00
27439;DHT22;14887;51.252;7.470;2024-02-04T02:00:46;7.60;1.00
27439;DHT22;14887;51.252;7.470;2024-02-04T02:03:14;7.60;1.00
27439;DHT22;14887;51.252;7.470;2024-02-04T02:05:40;7.60;1.00
27439;DHT22;14887;51.252;7.470;2024-02-04T02:08:07;7.60;1.00
27439;DHT22;14887;51.252;7.470;2024-02-04T02:10:33;7.60;1.00
27439;DHT22;14887;51.252;7.470;2024-02-04T02:13:09;7.60;1.00
27439;DHT22;14887;51.252;7.470;2024-02-04T02:15:40;7.70;1.00
27439;DHT22;14887;51.252;7.470;2024-02-04T02:18:15;7.60;1.00
27439;DHT22;14887;51.252;7.470;2024-02-04T02:21:23;7.60;1.00
27439;DHT22;14887;51.252;7.470;2024-02-04T02:24:56;7.70;1.00
27439;DHT22;14887;51.252;7.470;2024-02-04T02:27:02;7.70;1.00
27439;DHT22;14887;51.252;7.470;2024-02-04T02:29:27;7.70;1.00
27439;DHT22;14887;51.252;7.470;2024-02-04T02:31:53;7.70;1.00
27439;DHT22;14887;51.252;7.470;2024-02-04T02:34:19;7.70;1.00
27439;DHT22;14887;51.252;7.470;2024-02-04T02:36:50;7.70;1.00
27439;DHT22;14887;51.252;7.470;2024-02-04T02:39:31;7.70;1.00
27439;DHT22;14887;51.252;7.470;2024-02-04T02:41:59;7.80;1.00
27439;DHT22;14887;51.252;7.470;2024-02-04T02:44:27;7.80;1.00
27439;DHT22;14887;51.252;7.470;2024-02-04T02:46:56;7.80;1.00
27439;DHT22;14887;51.252;7.470;2024-02-04T02:49:22;7.80;1.00
27439;DHT22;14887;51.252;7.470;2024-02-04T02:51:48;7.80;1.00
27439;DHT22;14887;51.252;7.470;2024-02-04T02:54:13;7.80;1.00
27439;DHT22;14887;51.252;7.470;2024-02-04T02:56:39;7.80;1.00
27439;DHT22;14887;51.252;7.470;2024-02-04T02:59:04;7.80;1.00
27439;DHT22;14887;51.252;7.470;2024-02-04T03:01:30;7.80;1.00
27439;DHT22;14887;51.252;7.470;2024-02-04T03:03:56;7.80;1.00
27439;DHT22;14887;51.252;7.470;2024-02-04T03:06:22;7.80;1.00
27439;DHT22;14887;51.252;7.470;2024-02-04T03:08:47;7.80;1.00
27439;DHT22;14887;51.252;7.470;2024-02-04T03:11:13;7.80;1.00
27439;DHT22;14887;51.252;7.470;2024-02-04T03:13:39;7.80;1.00
27439;DHT22;14887;51.252;7.470;2024-02-04T03:16:12;7.80;1.00
27439;DHT22;14887;51.252;7.470;2024-02-04T03:18:42;7.90;1.00
27439;DHT22;14887;51.252;7.470;2024-02-04T03:21:14;7.80;1.00
27439;DHT22;14887;51.252;7.470;2024-02-04T03:23:41;7.80;1.00
27439;DHT22;14887;51.252;7.470;2024-02-04T03:26:08;7.80;1.00
27439;DHT22;14887;51.252;7.470;2024-02-04T03:28:33;7.80;1.00
27439;DHT22;14887;51.252;7.470;2024-02-04T03:30:59;7.90;1.00
27439;DHT22;14887;51.252;7.470;2024-02-04T03:33:24;7.90;1.00
27439;DHT22;14887;51.252;7.470;2024-02-04T03:35:50;7.90;1.00
27439;DHT22;14887;51.252;7.470;2024-02-04T03:38:15;7.80;1.00
27439;DHT22;14887;51.252;7.470;2024-02-04T03:40:41;7.80;1.00
27439;DHT22;14887;51.252;7.470;2024-02-04T03:43:08;7.80;1.00
27439;DHT22;14887;51.252;7.470;2024-02-04T03:45:35;7.80;1.00
27439;DHT22;14887;51.252;7.470;2024-02-04T03:48:01;7.80;1.00
27439;DHT22;14887;51.252;7.470;2024-02-04T03:50:27;7.80;1.00
27439;DHT22;14887;51.252;7.470;2024-02-04T03:52:52;7.90;1.00
27439;DHT22;14887;51.252;7.470;2024-02-04T03:55:18;7.90;1.00
27439;DHT22;14887;51.252;7.470;2024-02-04T03:57:44;7.90;1.00
27439;DHT22;14887;51.252;7.470;2024-02-04T04:00:10;7.90;1.00
27439;DHT22;14887;51.252;7.470;2024-02-04T04:02:36;7.80;1.00
27439;DHT22;14887;51.252;7.470;2024-02-04T04:05:01;7.90;1.00
27439;DHT22;14887;51.252;7.470;2024-02-04T04:07:27;7.90;1.00
27439;DHT22;14887;51.252;7.470;2024-02-04T04:09:52;7.90;1.00
27439;DHT22;14887;51.252;7.470;2024-02-04T04:12:18;7.90;1.00
27439;DHT22;14887;51.252;7.470;2024-02-04T04:14:43;7.90;1.00
27439;DHT22;14887;51.252;7.470;2024-02-04T04:17:09;8.00;1.00
27439;DHT22;14887;51.252;7.470;2024-02-04T04:19:34;7.90;1.00
27439;DHT22;14887;51.252;7.470;2024-02-04T04:22:02;7.90;1.00
27439;DHT22;14887;51.252;7.470;2024-02-04T04:24:28;7.90;1.00
27439;DHT22;14887;51.252;7.470;2024-02-04T04:26:53;7.90;1.00
27439;DHT22;14887;51.252;7.470;2024-02-04T04:29:20;7.90;1.00
27439;DHT22;14887;51.252;7.470;2024-02-04T04:31:46;7.90;1.00
27439;DHT22;14887;51.252;7.470;2024-02-04T04:34:11;7.90;1.00
27439;DHT22;14887;51.252;7.470;2024-02-04T04:36:37;7.90;1.00
27439;DHT22;14887;51.252;7.470;2024-02-04T04:39:03;7.90;1.00
27439;DHT22;14887;51.252;7.470;2024-02-04T04:41:28;7.90;1.00
27439;DHT22;14887;51.252;7.470;2024-02-04T04:43:54;7.90;1.00
27439;DHT22;14887;51.252;7.470;2024-02-04T04:46:20;7.90;1.00
27439;DHT22;14887;51.252;7.470;2024-02-04T04:48:46;7.90;1.00
27439;DHT22;14887;51.252;7.470;2024-02-04T04:51:11;7.90;1.00
27439;DHT22;14887;51.252;7.470;2024-02-04T04:53:37;7.90;1.00
27439;DHT22;14887;51.252;7.470;2024-02-04T04:56:04;7.90;1.00
27439;DHT22;14887;51.252;7.470;2024-02-04T04:58:30;7.90;1.00
27439;DHT22;14887;51.252;7.470;2024-02-04T05:00:55;7.80;1.00
27439;DHT22;14887;51.252;7.470;2024-02-04T05:03:21;7.80;1.00
27439;DHT22;14887;51.252;7.470;2024-02-04T05:05:47;7.80;1.00
27439;DHT22;14887;51.252;7.470;2024-02-04T05:08:14;7.80;1.00
27439;DHT22;14887;51.252;7.470;2024-02-04T05:10:40;7.80;1.00
27439;DHT22;14887;51.252;7.470;2024-02-04T05:13:05;7.80;1.00
27439;DHT22;14887;51.252;7.470;2024-02-04T05:15:31;7.80;1.00
27439;DHT22;14887;51.252;7.470;2024-02-04T05:17:56;7.70;1.00
27439;DHT22;14887;51.252;7.470;2024-02-04T05:20:22;7.80;1.00
27439;DHT22;14887;51.252;7.470;2024-02-04T05:22:47;7.90;1.00
27439;DHT22;14887;51.252;7.470;2024-02-04T05:25:13;7.70;1.00
27439;DHT22;14887;51.252;7.470;2024-02-04T05:27:39;7.70;1.00
27439;DHT22;14887;51.252;7.470;2024-02-04T05:30:05;7.80;1.00
27439;DHT22;14887;51.252;7.470;2024-02-04T05:32:31;7.70;1.00
27439;DHT22;14887;51.252;7.470;2024-02-04T05:34:56;7.70;1.00
27439;DHT22;14887;51.252;7.470;2024-02-04T05:37:22;7.70;1.00
27439;DHT22;14887;51.252;7.470;2024-02-04T05:39:48;7.70;1.00
27439;DHT22;14887;51.252;7.470;2024-02-04T05:42:13;7.70;1.00
27439;DHT22;14887;51.252;7.470;2024-02-04T05:44:39;7.70;1.00
27439;DHT22;14887;51.252;7.470;2024-02-04T05:47:04;7.60;1.00
27439;DHT22;14887;51.252;7.470;2024-02-04T05:49:30;7.70;1.00
27439;DHT22;14887;51.252;7.470;2024-02-04T05:51:55;7.60;1.00
27439;DHT22;14887;51.252;7.470;2024-02-04T05:54:21;7.70;1.00
27439;DHT22;14887;51.252;7.470;2024-02-04T05:56:46;7.70;1.00
27439;DHT22;14887;51.252;7.470;2024-02-04T05:59:12;7.70;1.00
27439;DHT22;14887;51.252;7.470;2024-02-04T06:01:38;7.70;1.00
27439;DHT22;14887;51.252;7.470;2024-02-04T06:04:03;7.70;1.00
27439;DHT22;14887;51.252;7.470;2024-02-04T06:06:29;7.70;1.00
27439;DHT22;14887;51.252;7.470;2024-02-04T06:08:54;7.70;1.00
27439;DHT22;14887;51.252;7.470;2024-02-04T06:11:20;7.70;1.00
27439;DHT22;14887;51.252;7.470;2024-02-04T06:13:45;7.70;1.00
27439;DHT22;14887;51.252;7.470;2024-02-04T06:16:11;7.70;1.00
27439;DHT22;14887;51.252;7.470;2024-02-04T06:18:38;7.70;1.00
27439;DHT22;14887;51.252;7.470;2024-02-04T06:21:04;7.70;1.00
27439;DHT22;14887;51.252;7.470;2024-02-04T06:23:30;7.70;1.00
27439;DHT22;14887;51.252;7.470;2024-02-04T06:25:55;7.70;1.00
27439;DHT22;14887;51.252;7.470;2024-02-04T06:28:21;7.70;1.00
27439;DHT22;14887;51.252;7.470;2024-02-04T06:30:46;7.70;1.00
27439;DHT22;14887;51.252;7.470;2024-02-04T06:33:12;7.70;1.00
27439;DHT22;14887;51.252;7.470;2024-02-04T06:35:37;7.70;1.00
27439;DHT22;14887;51.252;7.470;2024-02-04T06:38:03;7.70;1.00
27439;DHT22;14887;51.252;7.470;2024-02-04T06:40:29;7.70;1.00
27439;DHT22;14887;51.252;7.470;2024-02-04T06:42:54;7.70;1.00
27439;DHT22;14887;51.252;7.470;2024-02-04T06:45:19;7.70;1.00
27439;DHT22;14887;51.252;7.470;2024-02-04T06:47:45;7.80;1.00
27439;DHT22;14887;51.252;7.470;2024-02-04T06:50:11;7.80;1.00
27439;DHT22;14887;51.252;7.470;2024-02-04T06:52:40;7.70;1.00
27439;DHT22;14887;51.252;7.470;2024-02-04T06:55:07;7.70;1.00
27439;DHT22;14887;51.252;7.470;2024-02-04T06:57:33;7.70;1.00
27439;DHT22;14887;51.252;7.470;2024-02-04T06:59:58;7.80;1.00
27439;DHT22;14887;51.252;7.470;2024-02-04T07:02:24;7.70;1.00
27439;DHT22;14887;51.252;7.470;2024-02-04T07:04:49;7.80;1.00
27439;DHT22;14887;51.252;7.470;2024-02-04T07:07:15;7.80;1.00
27439;DHT22;14887;51.252;7.470;2024-02-04T07:09:40;7.80;1.00
27439;DHT22;14887;51.252;7.470;2024-02-04T07:12:06;7.80;1.00
27439;DHT22;14887;51.252;7.470;2024-02-04T07:14:32;7.80;1.00
27439;DHT22;14887;51.252;7.470;2024-02-04T07:16:57;7.80;1.00
27439;DHT22;14887;51.252;7.470;2024-02-04T07:19:23;7.80;1.00
27439;DHT22;14887;51.252;7.470;2024-02-04T07:21:48;7.80;1.00
27439;DHT22;14887;51.252;7.470;2024-02-04T07:24:14;7.80;1.00
27439;DHT22;14887;51.252;7.470;2024-02-04T07:26:39;7.80;1.00
27439;DHT22;14887;51.252;7.470;2024-02-04T07:29:05;7.80;1.00
27439;DHT22;14887;51.252;7.470;2024-02-04T07:31:30;7.80;1.00
27439;DHT22;14887;51.252;7.470;2024-02-04T07:33:56;7.90;1.00
27439;DHT22;14887;51.252;7.470;2024-02-04T07:36:22;7.90;1.00
27439;DHT22;14887;51.252;7.470;2024-02-04T07:38:47;7.90;1.00
27439;DHT22;14887;51.252;7.470;2024-02-04T07:41:14;7.90;1.00
27439;DHT22;14887;51.252;7.470;2024-02-04T07:43:40;7.90;1.00
27439;DHT22;14887;51.252;7.470;2024-02-04T07:46:08;7.90;1.00
27439;DHT22;14887;51.252;7.470;2024-02-04T07:48:34;7.90;1.00
27439;DHT22;14887;51.252;7.470;2024-02-04T07:50:59;7.90;1.00
27439;DHT22;14887;51.252;7.470;2024-02-04T07:53:25;7.90;1.00
27439;DHT22;14887;51.252;7.470;2024-02-04T07:55:51;7.90;1.00
27439;DHT22;14887;51.252;7.470;2024-02-04T07:58:16;7.90;1.00
27439;DHT22;14887;51.252;7.470;2024-02-04T08:00:42;7.90;1.00
27439;DHT22;14887;51.252;7.470;2024-02-04T08:03:08;7.90;1.00
27439;DHT22;14887;51.252;7.470;2024-02-04T08:05:34;8.00;1.00
27439;DHT22;14887;51.252;7.470;2024-02-04T08:08:01;7.90;1.00
27439;DHT22;14887;51.252;7.470;2024-02-04T08:10:26;7.90;1.00
27439;DHT22;14887;51.252;7.470;2024-02-04T08:12:52;8.00;1.00
27439;DHT22;14887;51.252;7.470;2024-02-04T08:15:19;7.90;1.00
27439;DHT22;14887;51.252;7.470;2024-02-04T08:17:45;8.00;1.00
27439;DHT22;14887;51.252;7.470;2024-02-04T08:20:11;8.00;1.00
27439;DHT22;14887;51.252;7.470;2024-02-04T08:22:37;8.00;1.00
27439;DHT22;14887;51.252;7.470;2024-02-04T08:25:03;7.90;1.00
27439;DHT22;14887;51.252;7.470;2024-02-04T08:27:28;7.90;1.00
27439;DHT22;14887;51.252;7.470;2024-02-04T08:29:54;8.00;1.00
27439;DHT22;14887;51.252;7.470;2024-02-04T08:32:20;7.90;1.00
27439;DHT22;14887;51.252;7.470;2024-02-04T08:34:46;8.00;1.00
27439;DHT22;14887;51.252;7.470;2024-02-04T08:37:11;8.00;1.00
27439;DHT22;14887;51.252;7.470;2024-02-04T08:39:37;8.00;1.00
27439;DHT22;14887;51.252;7.470;2024-02-04T08:42:02;8.00;1.00
27439;DHT22;14887;51.252;7.470;2024-02-04T08:44:28;8.00;1.00
27439;DHT22;14887;51.252;7.470;2024-02-04T08:46:53;8.00;1.00
27439;DHT22;14887;51.252;7.470;2024-02-04T08:49:20;8.00;1.00
27439;DHT22;14887;51.252;7.470;2024-02-04T08:51:46;8.00;1.00
27439;DHT22;14887;51.252;7.470;2024-02-04T08:54:11;8.00;1.00
27439;DHT22;14887;51.252;7.470;2024-02-04T08:56:37;8.00;1.00
27439;DHT22;14887;51.252;7.470;2024-02-04T08:59:03;8.00;1.00
27439;DHT22;14887;51.252;7.470;2024-02-04T09:01:28;8.00;1.00
27439;DHT22;14887;51.252;7.470;2024-02-04T09:03:54;7.90;1.00
27439;DHT22;14887;51.252;7.470;2024-02-04T09:06:19;7.90;1.00
27439;DHT22;14887;51.252;7.470;2024-02-04T09:08:46;7.90;1.00
27439;DHT22;14887;51.252;7.470;2024-02-04T09:11:11;7.90;1.00
27439;DHT22;14887;51.252;7.470;2024-02-04T09:13:47;7.90;1.00
27439;DHT22;14887;51.252;7.470;2024-02-04T09:16:12;7.90;1.00
27439;DHT22;14887;51.252;7.470;2024-02-04T09:18:38;7.90;1.00
27439;DHT22;14887;51.252;7.470;2024-02-04T09:21:04;7.90;1.00
27439;DHT22;14887;51.252;7.470;2024-02-04T09:23:29;7.80;1.00
27439;DHT22;14887;51.252;7.470;2024-02-04T09:25:55;7.80;1.00
27439;DHT22;14887;51.252;7.470;2024-02-04T09:28:20;7.90;1.00
27439;DHT22;14887;51.252;7.470;2024-02-04T09:30:46;7.90;1.00
27439;DHT22;14887;51.252;7.470;2024-02-04T09:33:12;7.90;1.00
27439;DHT22;14887;51.252;7.470;2024-02-04T09:35:38;7.90;1.00
27439;DHT22;14887;51.252;7.470;2024-02-04T09:38:03;7.90;1.00
27439;DHT22;14887;51.252;7.470;2024-02-04T09:40:29;7.90;1.00
27439;DHT22;14887;51.252;7.470;2024-02-04T09:42:56;7.90;1.00
27439;DHT22;14887;51.252;7.470;2024-02-04T09:45:22;7.80;1.00
27439;DHT22;14887;51.252;7.470;2024-02-04T09:47:50;7.80;1.00
27439;DHT22;14887;51.252;7.470;2024-02-04T09:50:19;7.70;1.00
27439;DHT22;14887;51.252;7.470;2024-02-04T09:52:48;7.80;1.00
27439;DHT22;14887;51.252;7.470;2024-02-04T09:55:15;7.80;1.00
27439;DHT22;14887;51.252;7.470;2024-02-04T09:57:42;7.80;1.00
27439;DHT22;14887;51.252;7.470;2024-02-04T10:00:09;7.80;1.00
27439;DHT22;14887;51.252;7.470;2024-02-04T10:02:35;7.80;1.00
27439;DHT22;14887;51.252;7.470;2024-02-04T10:05:01;7.90;1.00
27439;DHT22;14887;51.252;7.470;2024-02-04T10:07:28;7.80;1.00
27439;DHT22;14887;51.252;7.470;2024-02-04T10:09:55;7.90;1.00
27439;DHT22;14887;51.252;7.470;2024-02-04T10:12:20;8.00;1.00
27439;DHT22;14887;51.252;7.470;2024-02-04T10:14:46;7.90;1.00
27439;DHT22;14887;51.252;7.470;2024-02-04T10:17:15;8.00;1.00
27439;DHT22;14887;51.252;7.470;2024-02-04T10:19:40;7.90;1.00
27439;DHT22;14887;51.252;7.470;2024-02-04T10:22:06;8.00;1.00
27439;DHT22;14887;51.252;7.470;2024-02-04T10:24:31;8.00;1.00
27439;DHT22;14887;51.252;7.470;2024-02-04T10:26:57;8.00;1.00
27439;DHT22;14887;51.252;7.470;2024-02-04T10:29:24;8.00;1.00
27439;DHT22;14887;51.252;7.470;2024-02-04T10:31:56;8.00;1.00
27439;DHT22;14887;51.252;7.470;2024-02-04T10:34:23;8.00;1.00
27439;DHT22;14887;51.252;7.470;2024-02-04T10:36:48;8.10;1.00
27439;DHT22;14887;51.252;7.470;2024-02-04T10:39:14;8.10;1.00
27439;DHT22;14887;51.252;7.470;2024-02-04T10:41:48;8.10;1.00
27439;DHT22;14887;51.252;7.470;2024-02-04T10:44:16;8.10;1.00
27439;DHT22;14887;51.252;7.470;2024-02-04T10:46:46;8.20;1.00
27439;DHT22;14887;51.252;7.470;2024-02-04T10:49:14;8.20;1.00
27439;DHT22;14887;51.252;7.470;2024-02-04T10:51:41;8.20;1.00
27439;DHT22;14887;51.252;7.470;2024-02-04T10:54:07;8.20;1.00
27439;DHT22;14887;51.252;7.470;2024-02-04T10:56:44;8.20;1.00
27439;DHT22;14887;51.252;7.470;2024-02-04T10:59:10;8.30;1.00
27439;DHT22;14887;51.252;7.470;2024-02-04T11:01:39;8.30;1.00
27439;DHT22;14887;51.252;7.470;2024-02-04T11:04:05;8.30;1.00
27439;DHT22;14887;51.252;7.470;2024-02-04T11:06:32;8.30;1.00
27439;DHT22;14887;51.252;7.470;2024-02-04T11:08:58;8.20;1.00
27439;DHT22;14887;51.252;7.470;2024-02-04T11:11:25;8.20;1.00
27439;DHT22;14887;51.252;7.470;2024-02-04T11:13:56;8.20;1.00
27439;DHT22;14887;51.252;7.470;2024-02-04T11:24:53;8.30;1.00
27439;DHT22;14887;51.252;7.470;2024-02-04T11:27:20;8.30;1.00
27439;DHT22;14887;51.252;7.470;2024-02-04T11:29:46;8.20;1.00
27439;DHT22;14887;51.252;7.470;2024-02-04T11:32:12;8.20;1.00
27439;DHT22;14887;51.252;7.470;2024-02-04T11:34:38;8.20;1.00
27439;DHT22;14887;51.252;7.470;2024-02-04T11:37:15;8.20;1.00
27439;DHT22;14887;51.252;7.470;2024-02-04T11:39:51;8.20;1.00
27439;DHT22;14887;51.252;7.470;2024-02-04T11:42:18;8.20;1.00
27439;DHT22;14887;51.252;7.470;2024-02-04T11:44:44;8.20;1.00
27439;DHT22;14887;51.252;7.470;2024-02-04T11:47:09;8.30;1.00
27439;DHT22;14887;51.252;7.470;2024-02-04T11:49:35;8.40;1.00
27439;DHT22;14887;51.252;7.470;2024-02-04T11:52:01;8.40;1.00
27439;DHT22;14887;51.252;7.470;2024-02-04T11:54:26;8.40;1.00
27439;DHT22;14887;51.252;7.470;2024-02-04T11:56:53;8.40;1.00
27439;DHT22;14887;51.252;7.470;2024-02-04T11:59:29;8.40;1.00
27439;DHT22;14887;51.252;7.470;2024-02-04T12:01:56;8.40;1.00
27439;DHT22;14887;51.252;7.470;2024-02-04T12:04:23;8.40;1.00
27439;DHT22;14887;51.252;7.470;2024-02-04T12:06:50;8.40;1.00
27439;DHT22;14887;51.252;7.470;2024-02-04T12:09:17;8.40;1.00
27439;DHT22;14887;51.252;7.470;2024-02-04T12:11:47;8.40;1.00
27439;DHT22;14887;51.252;7.470;2024-02-04T12:14:13;8.40;1.00
27439;DHT22;14887;51.252;7.470;2024-02-04T12:16:39;8.40;1.00
27439;DHT22;14887;51.252;7.470;2024-02-04T12:19:06;8.40;1.00
27439;DHT22;14887;51.252;7.470;2024-02-04T12:21:33;8.40;1.00
27439;DHT22;14887;51.252;7.470;2024-02-04T12:23:59;8.30;1.00
27439;DHT22;14887;51.252;7.470;2024-02-04T12:26:25;8.30;1.00
27439;DHT22;14887;51.252;7.470;2024-02-04T12:28:51;8.30;1.00
27439;DHT22;14887;51.252;7.470;2024-02-04T12:31:21;8.30;1.00
27439;DHT22;14887;51.252;7.470;2024-02-04T12:33:57;8.30;1.00
27439;DHT22;14887;51.252;7.470;2024-02-04T12:36:32;8.40;1.00
27439;DHT22;14887;51.252;7.470;2024-02-04T12:39:00;8.30;1.00
27439;DHT22;14887;51.252;7.470;2024-02-04T12:41:27;8.30;1.00
27439;DHT22;14887;51.252;7.470;2024-02-04T12:43:55;8.30;1.00
27439;DHT22;14887;51.252;7.470;2024-02-04T12:46:22;8.30;1.00
27439;DHT22;14887;51.252;7.470;2024-02-04T12:48:54;8.30;1.00
27439;DHT22;14887;51.252;7.470;2024-02-04T12:51:27;8.30;1.00
27439;DHT22;14887;51.252;7.470;2024-02-04T12:54:09;8.30;1.00
27439;DHT22;14887;51.252;7.470;2024-02-04T12:56:52;8.30;1.00
27439;DHT22;14887;51.252;7.470;2024-02-04T12:59:28;8.40;1.00
27439;DHT22;14887;51.252;7.470;2024-02-04T13:01:56;8.30;1.00
27439;DHT22;14887;51.252;7.470;2024-02-04T13:04:22;8.30;1.00
27439;DHT22;14887;51.252;7.470;2024-02-04T13:06:48;8.30;1.00
27439;DHT22;14887;51.252;7.470;2024-02-04T13:09:15;8.40;1.00
27439;DHT22;14887;51.252;7.470;2024-02-04T13:11:41;8.40;1.00
27439;DHT22;14887;51.252;7.470;2024-02-04T13:14:08;8.40;1.00
27439;DHT22;14887;51.252;7.470;2024-02-04T13:16:33;8.40;1.00
27439;DHT22;14887;51.252;7.470;2024-02-04T13:19:01;8.40;1.00
27439;DHT22;14887;51.252;7.470;2024-02-04T13:21:28;8.30;1.00
27439;DHT22;14887;51.252;7.470;2024-02-04T13:23:53;8.40;1.00
27439;DHT22;14887;51.252;7.470;2024-02-04T13:26:19;8.30;1.00
27439;DHT22;14887;51.252;7.470;2024-02-04T13:28:45;8.40;1.00
27439;DHT22;14887;51.252;7.470;2024-02-04T13:31:10;8.40;1.00
27439;DHT22;14887;51.252;7.470;2024-02-04T13:33:38;8.40;1.00
27439;DHT22;14887;51.252;7.470;2024-02-04T13:36:05;8.40;1.00
27439;DHT22;14887;51.252;7.470;2024-02-04T13:38:31;8.40;1.00
27439;DHT22;14887;51.252;7.470;2024-02-04T13:40:56;8.40;1.00
27439;DHT22;14887;51.252;7.470;2024-02-04T13:43:22;8.40;1.00
27439;DHT22;14887;51.252;7.470;2024-02-04T13:45:48;8.40;1.00
27439;DHT22;14887;51.252;7.470;2024-02-04T13:48:13;8.40;1.00
27439;DHT22;14887;51.252;7.470;2024-02-04T13:50:39;8.40;1.00
27439;DHT22;14887;51.252;7.470;2024-02-04T13:53:04;8.40;1.00
27439;DHT22;14887;51.252;7.470;2024-02-04T13:55:30;8.30;1.00
27439;DHT22;14887;51.252;7.470;2024-02-04T13:57:55;8.30;1.00
27439;DHT22;14887;51.252;7.470;2024-02-04T14:00:21;8.40;1.00
27439;DHT22;14887;51.252;7.470;2024-02-04T14:02:46;8.40;1.00
27439;DHT22;14887;51.252;7.470;2024-02-04T14:05:12;8.30;1.00
27439;DHT22;14887;51.252;7.470;2024-02-04T14:07:38;8.40;1.00
27439;DHT22;14887;51.252;7.470;2024-02-04T14:10:04;8.40;1.00
27439;DHT22;14887;51.252;7.470;2024-02-04T14:12:30;8.40;1.00
27439;DHT22;14887;51.252;7.470;2024-02-04T14:14:56;8.30;1.00
27439;DHT22;14887;51.252;7.470;2024-02-04T14:17:22;8.30;1.00
27439;DHT22;14887;51.252;7.470;2024-02-04T14:19:48;8.30;1.00
27439;DHT22;14887;51.252;7.470;2024-02-04T14:22:16;8.20;1.00
27439;DHT22;14887;51.252;7.470;2024-02-04T14:24:43;8.30;1.00
27439;DHT22;14887;51.252;7.470;2024-02-04T14:27:11;8.30;1.00
27439;DHT22;14887;51.252;7.470;2024-02-04T14:29:36;8.30;1.00
27439;DHT22;14887;51.252;7.470;2024-02-04T14:32:02;8.30;1.00
27439;DHT22;14887;51.252;7.470;2024-02-04T14:34:28;8.30;1.00
27439;DHT22;14887;51.252;7.470;2024-02-04T14:36:53;8.30;1.00
27439;DHT22;14887;51.252;7.470;2024-02-04T14:39:19;8.30;1.00
27439;DHT22;14887;51.252;7.470;2024-02-04T14:41:45;8.30;1.00
27439;DHT22;14887;51.252;7.470;2024-02-04T14:44:10;8.30;1.00
27439;DHT22;14887;51.252;7.470;2024-02-04T14:46:36;8.30;1.00
27439;DHT22;14887;51.252;7.470;2024-02-04T14:49:03;8.30;1.00
27439;DHT22;14887;51.252;7.470;2024-02-04T14:51:29;8.30;1.00
27439;DHT22;14887;51.252;7.470;2024-02-04T14:53:56;8.20;1.00
27439;DHT22;14887;51.252;7.470;2024-02-04T14:56:23;8.30;1.00
27439;DHT22;14887;51.252;7.470;2024-02-04T14:58:49;8.20;1.00
27439;DHT22;14887;51.252;7.470;2024-02-04T15:01:14;8.20;1.00
27439;DHT22;14887;51.252;7.470;2024-02-04T15:03:40;8.20;1.00
27439;DHT22;14887;51.252;7.470;2024-02-04T15:06:06;8.10;1.00
27439;DHT22;14887;51.252;7.470;2024-02-04T15:08:31;8.20;1.00
27439;DHT22;14887;51.252;7.470;2024-02-04T15:10:57;8.20;1.00
27439;DHT22;14887;51.252;7.470;2024-02-04T15:13:23;8.20;1.00
27439;DHT22;14887;51.252;7.470;2024-02-04T15:15:49;8.20;1.00
27439;DHT22;14887;51.252;7.470;2024-02-04T15:18:14;8.20;1.00
27439;DHT22;14887;51.252;7.470;2024-02-04T15:20:40;8.20;1.00
27439;DHT22;14887;51.252;7.470;2024-02-04T15:23:06;8.20;1.00
27439;DHT22;14887;51.252;7.470;2024-02-04T15:25:33;8.20;1.00
27439;DHT22;14887;51.252;7.470;2024-02-04T15:27:59;8.20;1.00
27439;DHT22;14887;51.252;7.470;2024-02-04T15:30:24;8.20;1.00
27439;DHT22;14887;51.252;7.470;2024-02-04T15:32:50;8.20;1.00
27439;DHT22;14887;51.252;7.470;2024-02-04T15:35:17;8.20;1.00
27439;DHT22;14887;51.252;7.470;2024-02-04T15:37:43;8.20;1.00
27439;DHT22;14887;51.252;7.470;2024-02-04T15:40:09;8.20;1.00
27439;DHT22;14887;51.252;7.470;2024-02-04T15:42:36;8.20;1.00
27439;DHT22;14887;51.252;7.470;2024-02-04T15:45:01;8.20;1.00
27439;DHT22;14887;51.252;7.470;2024-02-04T15:47:30;8.20;1.00
27439;DHT22;14887;51.252;7.470;2024-02-04T15:49:56;8.10;1.00
27439;DHT22;14887;51.252;7.470;2024-02-04T15:52:21;8.20;1.00
27439;DHT22;14887;51.252;7.470;2024-02-04T15:54:47;8.20;1.00
27439;DHT22;14887;51.252;7.470;2024-02-04T15:57:14;8.20;1.00
27439;DHT22;14887;51.252;7.470;2024-02-04T15:59:50;8.10;1.00
27439;DHT22;14887;51.252;7.470;2024-02-04T16:02:17;8.20;1.00
27439;DHT22;14887;51.252;7.470;2024-02-04T16:04:43;8.10;1.00
27439;DHT22;14887;51.252;7.470;2024-02-04T16:07:11;8.20;1.00